Managua, Nicaragua

7:54 AM CST on December 07, 2016 (GMT -0600)
Augusto Cesar Sandino | | Change Station

Elev 184 ft 12.14 °N, 86.17 °W | Updated 54 minutes ago

Partly Cloudy
Partly Cloudy
75 °F
Feels Like 75 °F
N
7
Wind Variable Wind from SSE

Today
High -- | Low -- °F
--% Chance of Precip.
Yesterday
High -- | Low -- °F
Precip. -- in
Pressure 29.89 in
Visibility 6.2 miles
Clouds Few 2100 ft
Dew Point 72 °F
Humidity 89%
Rainfall 0.00 in
Snow Depth Not available.
5:53 AM 5:19 PM
First Quarter, 52% visible
METAR MNMG 071300Z 16006KT 9999 FEW021 24/22 Q1012 A2989 NOSIG
Pressure 29.89 in
Visibility 6.2 miles
Clouds Few 2100 ft
Dew Point 72 °F
Humidity 89%
Rainfall 0.00 in
Snow Depth Not available.
5:53 AM 5:19 PM
First Quarter, 52% visible
METAR MNMG 071300Z 16006KT 9999 FEW021 24/22 Q1012 A2989 NOSIG

10-Day Weather Forecast

No radar image for this location.
×

Almanac

Astronomy

Dec. 07, 2016 Rise Set
Actual Time
Civil Twilight
Nautical Twilight
Astronomical Twilight
Moon
Length of Visible Light
Length of Day
Tomorrow will be .
, % of the Moon is Illuminated

Today's Extremes

Country Highs Country Lows

Community

WunderPhotos

Upload Photos

1,956,114 photos uploaded!

WunderBlog® & News

Nearby

Air Quality

  Air Quality AQ Index Pollutant
Not available.

Snow Depth

Station Depth Elevation

Earthquake Activity

City Distance Mag. Time & Date
Minimum magnitude displayed is 2.5.

Coastal Water Temperatures

Place Temperature

Stations

Nearby Weather Stations

Station Location Temp. Windchill Dew Point Humidity Wind Precip. Elev Updated Type